sensor_id;sensor_type;location;lat;lon;timestamp;pressure;altitude;pressure_sealevel;temperature;humidity
64886;BME280;51514;52.206;5.114;2023-03-21T00:01:16;101683.06;;;10.54;100.00
64886;BME280;51514;52.206;5.114;2023-03-21T00:03:41;101680.34;;;10.54;100.00
64886;BME280;51514;52.206;5.114;2023-03-21T00:06:10;101681.47;;;10.52;100.00
64886;BME280;51514;52.206;5.114;2023-03-21T00:08:36;101669.84;;;10.51;100.00
64886;BME280;51514;52.206;5.114;2023-03-21T00:11:04;101669.13;;;10.49;100.00
64886;BME280;51514;52.206;5.114;2023-03-21T00:13:30;101670.69;;;10.52;100.00
64886;BME280;51514;52.206;5.114;2023-03-21T00:16:24;101673.09;;;10.45;100.00
64886;BME280;51514;52.206;5.114;2023-03-21T00:18:52;101665.59;;;10.49;100.00
64886;BME280;51514;52.206;5.114;2023-03-21T00:21:19;101660.34;;;10.47;100.00
64886;BME280;51514;52.206;5.114;2023-03-21T00:23:45;101663.72;;;10.49;100.00
64886;BME280;51514;52.206;5.114;2023-03-21T00:26:12;101662.59;;;10.52;100.00
64886;BME280;51514;52.206;5.114;2023-03-21T00:28:40;101661.47;;;10.54;100.00
64886;BME280;51514;52.206;5.114;2023-03-21T00:31:06;101661.63;;;10.53;100.00
64886;BME280;51514;52.206;5.114;2023-03-21T00:33:33;101660.75;;;10.52;100.00
64886;BME280;51514;52.206;5.114;2023-03-21T00:35:59;101662.47;;;10.53;100.00
64886;BME280;51514;52.206;5.114;2023-03-21T00:38:24;101660.75;;;10.52;100.00
64886;BME280;51514;52.206;5.114;2023-03-21T00:40:50;101659.63;;;10.55;100.00
64886;BME280;51514;52.206;5.114;2023-03-21T00:43:16;101658.53;;;10.57;100.00
64886;BME280;51514;52.206;5.114;2023-03-21T00:45:45;101655.09;;;10.55;100.00
64886;BME280;51514;52.206;5.114;2023-03-21T00:48:11;101652.28;;;10.57;100.00
64886;BME280;51514;52.206;5.114;2023-03-21T00:50:37;101646.56;;;10.50;100.00
64886;BME280;51514;52.206;5.114;2023-03-21T00:53:03;101651.81;;;10.52;100.00
64886;BME280;51514;52.206;5.114;2023-03-21T00:55:29;101642.03;;;10.51;100.00
64886;BME280;51514;52.206;5.114;2023-03-21T00:57:55;101634.38;;;10.46;100.00
64886;BME280;51514;52.206;5.114;2023-03-21T01:00:20;101635.09;;;10.48;100.00
64886;BME280;51514;52.206;5.114;2023-03-21T01:02:46;101631.38;;;10.49;100.00
64886;BME280;51514;52.206;5.114;2023-03-21T01:05:33;101628.41;;;10.52;100.00
64886;BME280;51514;52.206;5.114;2023-03-21T01:08:18;101625.72;;;10.52;100.00
64886;BME280;51514;52.206;5.114;2023-03-21T01:10:46;101625.56;;;10.54;100.00
64886;BME280;51514;52.206;5.114;2023-03-21T01:13:14;101629.25;;;10.53;100.00
64886;BME280;51514;52.206;5.114;2023-03-21T01:15:46;101615.91;;;10.51;100.00
64886;BME280;51514;52.206;5.114;2023-03-21T01:18:12;101613.94;;;10.53;100.00
64886;BME280;51514;52.206;5.114;2023-03-21T01:20:40;101615.91;;;10.51;100.00
64886;BME280;51514;52.206;5.114;2023-03-21T01:23:06;101613.09;;;10.53;100.00
64886;BME280;51514;52.206;5.114;2023-03-21T01:25:31;101608.53;;;10.53;100.00
64886;BME280;51514;52.206;5.114;2023-03-21T01:27:56;101612.09;;;10.54;100.00
64886;BME280;51514;52.206;5.114;2023-03-21T01:30:22;101601.44;;;10.52;100.00
64886;BME280;51514;52.206;5.114;2023-03-21T01:32:47;101595.50;;;10.49;100.00
64886;BME280;51514;52.206;5.114;2023-03-21T01:35:12;101594.34;;;10.51;100.00
64886;BME280;51514;52.206;5.114;2023-03-21T01:37:38;101599.00;;;10.49;100.00
64886;BME280;51514;52.206;5.114;2023-03-21T01:40:04;101589.25;;;10.48;100.00
64886;BME280;51514;52.206;5.114;2023-03-21T01:42:30;101586.69;;;10.47;100.00
64886;BME280;51514;52.206;5.114;2023-03-21T01:45:00;101587.53;;;10.47;100.00
64886;BME280;51514;52.206;5.114;2023-03-21T01:47:27;101585.84;;;10.46;100.00
64886;BME280;51514;52.206;5.114;2023-03-21T01:49:55;101591.94;;;10.48;100.00
64886;BME280;51514;52.206;5.114;2023-03-21T01:52:28;101583.88;;;10.48;100.00
64886;BME280;51514;52.206;5.114;2023-03-21T01:54:57;101580.44;;;10.46;100.00
64886;BME280;51514;52.206;5.114;2023-03-21T01:57:27;101574.91;;;10.38;100.00
64886;BME280;51514;52.206;5.114;2023-03-21T01:59:58;101578.44;;;10.39;100.00
64886;BME280;51514;52.206;5.114;2023-03-21T02:02:30;101572.22;;;10.38;100.00
64886;BME280;51514;52.206;5.114;2023-03-21T02:04:56;101572.03;;;10.40;100.00
64886;BME280;51514;52.206;5.114;2023-03-21T02:07:28;101569.22;;;10.41;100.00
64886;BME280;51514;52.206;5.114;2023-03-21T02:09:55;101569.34;;;10.40;100.00
64886;BME280;51514;52.206;5.114;2023-03-21T02:12:20;101566.53;;;10.41;100.00
64886;BME280;51514;52.206;5.114;2023-03-21T02:14:50;101564.53;;;10.43;100.00
64886;BME280;51514;52.206;5.114;2023-03-21T02:17:30;101552.31;;;10.39;100.00
64886;BME280;51514;52.206;5.114;2023-03-21T02:37:13;101540.41;;;10.32;100.00
64886;BME280;51514;52.206;5.114;2023-03-21T02:39:23;101537.84;;;10.31;100.00
64886;BME280;51514;52.206;5.114;2023-03-21T02:47:00;101527.91;;;10.31;100.00
64886;BME280;51514;52.206;5.114;2023-03-21T02:49:50;101524.81;;;10.26;100.00
64886;BME280;51514;52.206;5.114;2023-03-21T02:52:20;101522.66;;;10.30;100.00
64886;BME280;51514;52.206;5.114;2023-03-21T02:54:47;101529.63;;;10.32;100.00
64886;BME280;51514;52.206;5.114;2023-03-21T02:57:15;101515.16;;;10.33;100.00
64886;BME280;51514;52.206;5.114;2023-03-21T02:59:43;101520.56;;;10.33;100.00
64886;BME280;51514;52.206;5.114;2023-03-21T03:02:09;101518.84;;;10.32;100.00
64886;BME280;51514;52.206;5.114;2023-03-21T03:04:34;101513.72;;;10.29;100.00
64886;BME280;51514;52.206;5.114;2023-03-21T03:09:55;101509.63;;;10.25;100.00
64886;BME280;51514;52.206;5.114;2023-03-21T03:15:34;101509.63;;;10.25;100.00
64886;BME280;51514;52.206;5.114;2023-03-21T03:18:23;101516.00;;;10.24;100.00
64886;BME280;51514;52.206;5.114;2023-03-21T03:23:45;101512.31;;;10.25;100.00
64886;BME280;51514;52.206;5.114;2023-03-21T03:26:16;101503.94;;;10.28;100.00
64886;BME280;51514;52.206;5.114;2023-03-21T03:28:50;101511.16;;;10.28;100.00
64886;BME280;51514;52.206;5.114;2023-03-21T03:31:22;101504.97;;;10.27;100.00
64886;BME280;51514;52.206;5.114;2023-03-21T03:33:51;101504.25;;;10.25;100.00
64886;BME280;51514;52.206;5.114;2023-03-21T03:36:19;101510.63;;;10.24;100.00
64886;BME280;51514;52.206;5.114;2023-03-21T03:38:47;101499.84;;;10.24;100.00
64886;BME280;51514;52.206;5.114;2023-03-21T03:41:20;101499.25;;;10.20;100.00
64886;BME280;51514;52.206;5.114;2023-03-21T03:43:54;101505.50;;;10.21;100.00
64886;BME280;51514;52.206;5.114;2023-03-21T03:46:27;101497.56;;;10.19;100.00
64886;BME280;51514;52.206;5.114;2023-03-21T03:49:00;101494.00;;;10.19;100.00
64886;BME280;51514;52.206;5.114;2023-03-21T03:51:36;101493.25;;;10.17;100.00
64886;BME280;51514;52.206;5.114;2023-03-21T03:54:08;101494.28;;;10.16;100.00
64886;BME280;51514;52.206;5.114;2023-03-21T03:56:34;101492.03;;;10.21;100.00
64886;BME280;51514;52.206;5.114;2023-03-21T03:59:03;101494.72;;;10.21;100.00
64886;BME280;51514;52.206;5.114;2023-03-21T04:01:28;101483.94;;;10.21;100.00
64886;BME280;51514;52.206;5.114;2023-03-21T04:03:54;101497.56;;;10.19;100.00
64886;BME280;51514;52.206;5.114;2023-03-21T04:06:19;101488.63;;;10.19;100.00
64886;BME280;51514;52.206;5.114;2023-03-21T04:08:47;101494.72;;;10.21;100.00
64886;BME280;51514;52.206;5.114;2023-03-21T04:11:13;101487.31;;;10.13;100.00
64886;BME280;51514;52.206;5.114;2023-03-21T04:13:40;101486.47;;;10.13;100.00
64886;BME280;51514;52.206;5.114;2023-03-21T04:16:06;101488.03;;;10.15;100.00
64886;BME280;51514;52.206;5.114;2023-03-21T04:18:31;101477.38;;;10.14;100.00
64886;BME280;51514;52.206;5.114;2023-03-21T04:20:57;101483.75;;;10.13;100.00
64886;BME280;51514;52.206;5.114;2023-03-21T04:23:22;101477.94;;;10.08;100.00
64886;BME280;51514;52.206;5.114;2023-03-21T04:25:48;101480.75;;;10.06;100.00
64886;BME280;51514;52.206;5.114;2023-03-21T04:28:15;101478.22;;;10.05;100.00
64886;BME280;51514;52.206;5.114;2023-03-21T04:30:40;101475.53;;;10.05;100.00
64886;BME280;51514;52.206;5.114;2023-03-21T04:33:06;101479.09;;;10.05;100.00
64886;BME280;51514;52.206;5.114;2023-03-21T04:35:31;101478.06;;;10.06;100.00
64886;BME280;51514;52.206;5.114;2023-03-21T04:37:58;101472.53;;;10.08;100.00
64886;BME280;51514;52.206;5.114;2023-03-21T04:40:23;101468.59;;;10.12;100.00
64886;BME280;51514;52.206;5.114;2023-03-21T04:42:49;101466.59;;;10.14;100.00
64886;BME280;51514;52.206;5.114;2023-03-21T04:45:16;101472.00;;;10.14;100.00
64886;BME280;51514;52.206;5.114;2023-03-21T04:47:41;101472.84;;;10.14;100.00
64886;BME280;51514;52.206;5.114;2023-03-21T04:50:08;101471.28;;;10.12;100.00
64886;BME280;51514;52.206;5.114;2023-03-21T04:52:34;101465.88;;;10.12;100.00
64886;BME280;51514;52.206;5.114;2023-03-21T04:55:00;101475.94;;;10.10;100.00
64886;BME280;51514;52.206;5.114;2023-03-21T04:57:26;101469.56;;;10.11;100.00
64886;BME280;51514;52.206;5.114;2023-03-21T04:59:51;101459.78;;;10.10;100.00
64886;BME280;51514;52.206;5.114;2023-03-21T05:02:16;101471.41;;;10.10;100.00
64886;BME280;51514;52.206;5.114;2023-03-21T05:04:42;101465.19;;;10.10;100.00
64886;BME280;51514;52.206;5.114;2023-03-21T05:07:08;101467.59;;;10.13;100.00
64886;BME280;51514;52.206;5.114;2023-03-21T05:09:33;101468.59;;;10.12;100.00
64886;BME280;51514;52.206;5.114;2023-03-21T05:11:58;101463.19;;;10.12;100.00
64886;BME280;51514;52.206;5.114;2023-03-21T05:14:25;101461.50;;;10.11;100.00
64886;BME280;51514;52.206;5.114;2023-03-21T05:16:51;101465.88;;;10.12;100.00
64886;BME280;51514;52.206;5.114;2023-03-21T05:19:25;101457.81;;;10.12;100.00
64886;BME280;51514;52.206;5.114;2023-03-21T05:21:59;101458.53;;;10.14;100.00
64886;BME280;51514;52.206;5.114;2023-03-21T05:24:29;101455.69;;;10.15;100.00
64886;BME280;51514;52.206;5.114;2023-03-21T05:26:55;101454.13;;;10.13;100.00
64886;BME280;51514;52.206;5.114;2023-03-21T05:29:26;101453.00;;;10.15;100.00
64886;BME280;51514;52.206;5.114;2023-03-21T05:31:52;101448.28;;;10.17;100.00
64886;BME280;51514;52.206;5.114;2023-03-21T05:34:17;101444.63;;;10.18;100.00
64886;BME280;51514;52.206;5.114;2023-03-21T05:36:42;101447.91;;;10.22;100.00
64886;BME280;51514;52.206;5.114;2023-03-21T05:39:08;101447.78;;;10.23;100.00
64886;BME280;51514;52.206;5.114;2023-03-21T05:41:33;101452.31;;;10.23;100.00
64886;BME280;51514;52.206;5.114;2023-03-21T05:43:59;101441.41;;;10.24;100.00
64886;BME280;51514;52.206;5.114;2023-03-21T05:46:25;101445.94;;;10.24;100.00
64886;BME280;51514;52.206;5.114;2023-03-21T05:48:50;101444.09;;;10.24;100.00
64886;BME280;51514;52.206;5.114;2023-03-21T05:51:17;101450.19;;;10.27;100.00
64886;BME280;51514;52.206;5.114;2023-03-21T05:53:42;101448.03;;;10.30;100.00
64886;BME280;51514;52.206;5.114;2023-03-21T05:56:08;101450.75;;;10.30;100.00
64886;BME280;51514;52.206;5.114;2023-03-21T05:58:34;101447.91;;;10.32;100.00
64886;BME280;51514;52.206;5.114;2023-03-21T06:00:59;101441.53;;;10.33;100.00
64886;BME280;51514;52.206;5.114;2023-03-21T06:03:24;101437.97;;;10.32;100.00
64886;BME280;51514;52.206;5.114;2023-03-21T06:05:50;101437.13;;;10.32;100.00
64886;BME280;51514;52.206;5.114;2023-03-21T06:08:16;101444.50;;;10.30;100.00
64886;BME280;51514;52.206;5.114;2023-03-21T06:10:41;101433.59;;;10.31;100.00
64886;BME280;51514;52.206;5.114;2023-03-21T06:13:06;101450.47;;;10.33;100.00
64886;BME280;51514;52.206;5.114;2023-03-21T06:15:32;101452.44;;;10.31;100.00
64886;BME280;51514;52.206;5.114;2023-03-21T06:17:57;101449.88;;;10.30;100.00
64886;BME280;51514;52.206;5.114;2023-03-21T06:20:22;101447.06;;;10.31;100.00
64886;BME280;51514;52.206;5.114;2023-03-21T06:22:48;101445.06;;;10.33;100.00
64886;BME280;51514;52.206;5.114;2023-03-21T06:25:13;101447.91;;;10.32;100.00
64886;BME280;51514;52.206;5.114;2023-03-21T06:27:38;101445.34;;;10.30;100.00
64886;BME280;51514;52.206;5.114;2023-03-21T06:30:04;101440.09;;;10.29;100.00
64886;BME280;51514;52.206;5.114;2023-03-21T06:32:30;101445.34;;;10.30;100.00
64886;BME280;51514;52.206;5.114;2023-03-21T06:34:56;101448.03;;;10.30;100.00
64886;BME280;51514;52.206;5.114;2023-03-21T06:37:21;101444.50;;;10.30;100.00
64886;BME280;51514;52.206;5.114;2023-03-21T06:39:46;101449.88;;;10.30;100.00
64886;BME280;51514;52.206;5.114;2023-03-21T06:42:13;101449.63;;;10.33;100.00
64886;BME280;51514;52.206;5.114;2023-03-21T06:44:38;101451.47;;;10.32;100.00
64886;BME280;51514;52.206;5.114;2023-03-21T06:47:04;101448.50;;;10.35;100.00
64886;BME280;51514;52.206;5.114;2023-03-21T06:49:30;101453.59;;;10.38;100.00
64886;BME280;51514;52.206;5.114;2023-03-21T06:51:55;101450.19;;;10.36;100.00
64886;BME280;51514;52.206;5.114;2023-03-21T06:54:21;101453.88;;;10.35;100.00
64886;BME280;51514;52.206;5.114;2023-03-21T06:56:46;101446.50;;;10.37;100.00
64886;BME280;51514;52.206;5.114;2023-03-21T06:59:11;101449.63;;;10.33;100.00
64886;BME280;51514;52.206;5.114;2023-03-21T07:01:37;101451.47;;;10.32;100.00
64886;BME280;51514;52.206;5.114;2023-03-21T07:04:02;101444.94;;;10.35;100.00
64886;BME280;51514;52.206;5.114;2023-03-21T07:06:29;101457.69;;;10.33;100.00
64886;BME280;51514;52.206;5.114;2023-03-21T07:08:55;101456.13;;;10.30;100.00
64886;BME280;51514;52.206;5.114;2023-03-21T07:11:21;101454.44;;;10.29;100.00
64886;BME280;51514;52.206;5.114;2023-03-21T07:13:47;101459.13;;;10.27;100.00
64886;BME280;51514;52.206;5.114;2023-03-21T07:16:13;101453.03;;;10.25;100.00
64886;BME280;51514;52.206;5.114;2023-03-21T07:18:39;101452.72;;;10.28;100.00
64886;BME280;51514;52.206;5.114;2023-03-21T07:21:05;101448.63;;;10.24;100.00
64886;BME280;51514;52.206;5.114;2023-03-21T07:23:30;101457.25;;;10.28;100.00
64886;BME280;51514;52.206;5.114;2023-03-21T07:25:56;101451.59;;;10.31;100.00
64886;BME280;51514;52.206;5.114;2023-03-21T07:28:22;101457.84;;;10.31;100.00
64886;BME280;51514;52.206;5.114;2023-03-21T07:30:55;101458.13;;;10.28;100.00
64886;BME280;51514;52.206;5.114;2023-03-21T07:33:21;101440.94;;;10.29;100.00
64886;BME280;51514;52.206;5.114;2023-03-21T07:35:48;101437.28;;;10.30;100.00
64886;BME280;51514;52.206;5.114;2023-03-21T07:38:14;101432.59;;;10.32;100.00
64886;BME280;51514;52.206;5.114;2023-03-21T07:40:41;101422.66;;;10.33;100.00
64886;BME280;51514;52.206;5.114;2023-03-21T07:43:06;101425.22;;;10.34;100.00
64886;BME280;51514;52.206;5.114;2023-03-21T07:45:31;101417.97;;;10.35;100.00
64886;BME280;51514;52.206;5.114;2023-03-21T07:47:57;101414.16;;;10.37;100.00
64886;BME280;51514;52.206;5.114;2023-03-21T07:50:22;101415.88;;;10.38;100.00
64886;BME280;51514;52.206;5.114;2023-03-21T07:52:47;101418.38;;;10.40;100.00
64886;BME280;51514;52.206;5.114;2023-03-21T07:55:13;101415.41;;;10.43;100.00
64886;BME280;51514;52.206;5.114;2023-03-21T07:57:39;101416.13;;;10.45;100.00
64886;BME280;51514;52.206;5.114;2023-03-21T08:00:04;101422.38;;;10.45;100.00
64886;BME280;51514;52.206;5.114;2023-03-21T08:02:31;101422.09;;;10.48;100.00
64886;BME280;51514;52.206;5.114;2023-03-21T08:04:56;101414.69;;;10.50;100.00
64886;BME280;51514;52.206;5.114;2023-03-21T08:07:21;101420.78;;;10.52;100.00
64886;BME280;51514;52.206;5.114;2023-03-21T08:09:47;101420.22;;;10.58;100.00
64886;BME280;51514;52.206;5.114;2023-03-21T08:12:12;101418.06;;;10.62;100.00
64886;BME280;51514;52.206;5.114;2023-03-21T08:14:37;101416.78;;;10.66;100.00
64886;BME280;51514;52.206;5.114;2023-03-21T08:17:04;101409.28;;;10.70;100.00
64886;BME280;51514;52.206;5.114;2023-03-21T08:19:30;101409.56;;;10.67;100.00
64886;BME280;51514;52.206;5.114;2023-03-21T08:21:55;101417.19;;;10.71;100.00
64886;BME280;51514;52.206;5.114;2023-03-21T08:24:24;101407.97;;;10.74;100.00
64886;BME280;51514;52.206;5.114;2023-03-21T08:26:50;101399.88;;;10.74;100.00
64886;BME280;51514;52.206;5.114;2023-03-21T08:29:15;101401.00;;;10.71;100.00
64886;BME280;51514;52.206;5.114;2023-03-21T08:31:41;101394.78;;;10.71;100.00
64886;BME280;51514;52.206;5.114;2023-03-21T08:34:06;101394.34;;;10.75;100.00
64886;BME280;51514;52.206;5.114;2023-03-21T08:36:32;101399.59;;;10.77;100.00
64886;BME280;51514;52.206;5.114;2023-03-21T08:39:01;101391.66;;;10.75;100.00
64886;BME280;51514;52.206;5.114;2023-03-21T08:41:36;101383.69;;;10.74;100.00
64886;BME280;51514;52.206;5.114;2023-03-21T08:44:03;101382.69;;;10.75;100.00
64886;BME280;51514;52.206;5.114;2023-03-21T08:46:29;101374.31;;;10.78;100.00
64886;BME280;51514;52.206;5.114;2023-03-21T08:48:55;101370.78;;;10.77;100.00
64886;BME280;51514;52.206;5.114;2023-03-21T08:51:20;101368.94;;;10.78;100.00
64886;BME280;51514;52.206;5.114;2023-03-21T08:53:46;101370.91;;;10.76;100.00
64886;BME280;51514;52.206;5.114;2023-03-21T08:56:13;101362.69;;;10.77;100.00
64886;BME280;51514;52.206;5.114;2023-03-21T08:58:38;101356.72;;;10.74;100.00
64886;BME280;51514;52.206;5.114;2023-03-21T09:01:04;101354.16;;;10.72;100.00
64886;BME280;51514;52.206;5.114;2023-03-21T09:03:31;101355.00;;;10.73;100.00
64886;BME280;51514;52.206;5.114;2023-03-21T09:05:57;101355.72;;;10.75;100.00
64886;BME280;51514;52.206;5.114;2023-03-21T09:08:23;101355.44;;;10.78;100.00
64886;BME280;51514;52.206;5.114;2023-03-21T09:10:57;101351.28;;;10.83;100.00
64886;BME280;51514;52.206;5.114;2023-03-21T09:13:23;101348.72;;;10.91;100.00
64886;BME280;51514;52.206;5.114;2023-03-21T09:15:48;101345.56;;;10.96;100.00
64886;BME280;51514;52.206;5.114;2023-03-21T09:18:16;101355.31;;;11.07;100.00
64886;BME280;51514;52.206;5.114;2023-03-21T09:20:43;101348.63;;;11.11;100.00
64886;BME280;51514;52.206;5.114;2023-03-21T09:23:11;101351.84;;;11.14;100.00
64886;BME280;51514;52.206;5.114;2023-03-21T09:25:37;101343.75;;;11.14;100.00
64886;BME280;51514;52.206;5.114;2023-03-21T09:28:03;101345.44;;;11.15;100.00
64886;BME280;51514;52.206;5.114;2023-03-21T09:30:31;101344.47;;;11.16;99.19
64886;BME280;51514;52.206;5.114;2023-03-21T09:33:00;101322.44;;;11.21;98.92
64886;BME280;51514;52.206;5.114;2023-03-21T09:35:26;101328.53;;;11.23;97.96
64886;BME280;51514;52.206;5.114;2023-03-21T09:37:53;101332.94;;;11.24;97.60
64886;BME280;51514;52.206;5.114;2023-03-21T09:40:34;101328.06;;;11.27;97.44
64886;BME280;51514;52.206;5.114;2023-03-21T09:45:51;101339.78;;;11.36;96.66
64886;BME280;51514;52.206;5.114;2023-03-21T09:48:31;101328.56;;;11.41;96.95
64886;BME280;51514;52.206;5.114;2023-03-21T09:51:00;101332.31;;;11.48;97.25
64886;BME280;51514;52.206;5.114;2023-03-21T09:53:31;101335.72;;;11.50;97.36
64886;BME280;51514;52.206;5.114;2023-03-21T09:56:00;101323.94;;;11.51;96.47
64886;BME280;51514;52.206;5.114;2023-03-21T09:58:31;101329.31;;;11.51;96.77
64886;BME280;51514;52.206;5.114;2023-03-21T10:01:25;101324.34;;;11.56;96.81
64886;BME280;51514;52.206;5.114;2023-03-21T10:03:57;101327.56;;;11.59;97.12
64886;BME280;51514;52.206;5.114;2023-03-21T10:06:25;101318.72;;;11.67;97.39
64886;BME280;51514;52.206;5.114;2023-03-21T10:09:18;101319.66;;;11.76;96.64
64886;BME280;51514;52.206;5.114;2023-03-21T10:14:27;101315.88;;;11.86;94.90
64886;BME280;51514;52.206;5.114;2023-03-21T10:17:03;101317.56;;;11.87;95.06
64886;BME280;51514;52.206;5.114;2023-03-21T10:19:34;101317.94;;;11.92;95.29
64886;BME280;51514;52.206;5.114;2023-03-21T10:22:00;101316.94;;;11.93;94.71
64886;BME280;51514;52.206;5.114;2023-03-21T10:24:26;101316.31;;;11.99;94.94
64886;BME280;51514;52.206;5.114;2023-03-21T10:26:53;101322.09;;;12.04;95.04
64886;BME280;51514;52.206;5.114;2023-03-21T10:29:22;101319.78;;;12.10;95.06
64886;BME280;51514;52.206;5.114;2023-03-21T10:31:50;101319.78;;;12.10;93.35
64886;BME280;51514;52.206;5.114;2023-03-21T10:36:51;101303.63;;;12.18;93.30
64886;BME280;51514;52.206;5.114;2023-03-21T10:39:27;101292.50;;;12.21;94.29
64886;BME280;51514;52.206;5.114;2023-03-21T10:41:56;101286.97;;;12.30;93.83
64886;BME280;51514;52.206;5.114;2023-03-21T10:44:31;101306.41;;;12.34;94.12
64886;BME280;51514;52.206;5.114;2023-03-21T10:47:05;101297.47;;;12.33;91.95
64886;BME280;51514;52.206;5.114;2023-03-21T10:49:31;101299.53;;;12.39;92.14
64886;BME280;51514;52.206;5.114;2023-03-21T10:51:59;101297.69;;;12.40;93.77
64886;BME280;51514;52.206;5.114;2023-03-21T10:54:31;101312.25;;;12.47;92.36
64886;BME280;51514;52.206;5.114;2023-03-21T10:57:12;101307.22;;;12.52;92.03
64886;BME280;51514;52.206;5.114;2023-03-21T10:59:50;101315.19;;;12.54;91.78
64886;BME280;51514;52.206;5.114;2023-03-21T11:02:30;101314.25;;;12.45;89.87
64886;BME280;51514;52.206;5.114;2023-03-21T11:05:05;101315.66;;;12.49;91.26
64886;BME280;51514;52.206;5.114;2023-03-21T11:07:31;101312.09;;;12.49;91.39
64886;BME280;51514;52.206;5.114;2023-03-21T11:09:59;101307.16;;;12.44;90.71
64886;BME280;51514;52.206;5.114;2023-03-21T11:12:37;101310.91;;;12.43;91.12
64886;BME280;51514;52.206;5.114;2023-03-21T11:17:53;101298.25;;;12.52;91.71
64886;BME280;51514;52.206;5.114;2023-03-21T11:20:19;101295.41;;;12.53;91.43
64886;BME280;51514;52.206;5.114;2023-03-21T11:22:45;101298.09;;;12.53;90.48
64886;BME280;51514;52.206;5.114;2023-03-21T11:25:37;101291.31;;;12.49;91.24
64886;BME280;51514;52.206;5.114;2023-03-21T11:28:11;101282.88;;;12.52;91.08
64886;BME280;51514;52.206;5.114;2023-03-21T11:30:54;101275.47;;;12.54;90.29
64886;BME280;51514;52.206;5.114;2023-03-21T11:33:24;101286.94;;;12.56;90.16
64886;BME280;51514;52.206;5.114;2023-03-21T11:36:02;101265.69;;;12.61;91.72
64886;BME280;51514;52.206;5.114;2023-03-21T11:38:32;101261.00;;;12.71;91.79
64886;BME280;51514;52.206;5.114;2023-03-21T11:41:01;101261.03;;;12.79;90.44
64886;BME280;51514;52.206;5.114;2023-03-21T11:45:59;101256.69;;;12.95;90.64
64886;BME280;51514;52.206;5.114;2023-03-21T11:48:25;101266.16;;;12.99;89.59
64886;BME280;51514;52.206;5.114;2023-03-21T11:50:57;101264.13;;;12.93;89.35
64886;BME280;51514;52.206;5.114;2023-03-21T11:53:36;101259.41;;;12.95;88.77
64886;BME280;51514;52.206;5.114;2023-03-21T12:07:26;101262.59;;;12.90;88.21
64886;BME280;51514;52.206;5.114;2023-03-21T12:12:43;101258.53;;;12.86;87.22
64886;BME280;51514;52.206;5.114;2023-03-21T12:15:35;101250.56;;;12.85;86.90
64886;BME280;51514;52.206;5.114;2023-03-21T12:18:44;101249.38;;;12.87;86.57
64886;BME280;51514;52.206;5.114;2023-03-21T12:26:39;101241.91;;;13.31;85.08
64886;BME280;51514;52.206;5.114;2023-03-21T12:29:24;101237.53;;;13.46;85.24
64886;BME280;51514;52.206;5.114;2023-03-21T12:34:40;101236.34;;;13.57;81.90
64886;BME280;51514;52.206;5.114;2023-03-21T12:37:16;101231.09;;;13.56;79.83
64886;BME280;51514;52.206;5.114;2023-03-21T12:39:47;101227.91;;;13.60;79.21
64886;BME280;51514;52.206;5.114;2023-03-21T12:44:59;101208.72;;;14.02;77.50
64886;BME280;51514;52.206;5.114;2023-03-21T12:47:28;101207.47;;;14.21;77.14
64886;BME280;51514;52.206;5.114;2023-03-21T12:52:42;101215.75;;;14.36;74.95
64886;BME280;51514;52.206;5.114;2023-03-21T12:57:54;101204.44;;;14.24;74.60
64886;BME280;51514;52.206;5.114;2023-03-21T13:00:32;101188.31;;;14.22;75.36
64886;BME280;51514;52.206;5.114;2023-03-21T13:03:04;101196.81;;;14.28;75.40
64886;BME280;51514;52.206;5.114;2023-03-21T13:05:37;101195.25;;;14.33;75.93
64886;BME280;51514;52.206;5.114;2023-03-21T13:08:20;101194.25;;;14.26;76.19
64886;BME280;51514;52.206;5.114;2023-03-21T13:10:47;101187.66;;;14.20;75.32
64886;BME280;51514;52.206;5.114;2023-03-21T13:16:08;101181.59;;;14.02;75.20
64886;BME280;51514;52.206;5.114;2023-03-21T13:18:58;101181.28;;;13.89;76.04
64886;BME280;51514;52.206;5.114;2023-03-21T13:26:36;101177.59;;;13.58;77.08
64886;BME280;51514;52.206;5.114;2023-03-21T13:29:11;101178.63;;;13.40;76.95
64886;BME280;51514;52.206;5.114;2023-03-21T13:31:43;101173.53;;;13.37;77.73
64886;BME280;51514;52.206;5.114;2023-03-21T13:34:09;101177.94;;;13.38;77.51
64886;BME280;51514;52.206;5.114;2023-03-21T13:36:34;101180.31;;;13.33;78.89
64886;BME280;51514;52.206;5.114;2023-03-21T13:39:03;101167.59;;;13.26;78.51
64886;BME280;51514;52.206;5.114;2023-03-21T13:41:37;101171.16;;;13.26;78.12
64886;BME280;51514;52.206;5.114;2023-03-21T14:02:03;101160.69;;;13.39;78.21
64886;BME280;51514;52.206;5.114;2023-03-21T14:04:33;101152.19;;;13.42;77.83
64886;BME280;51514;52.206;5.114;2023-03-21T14:07:18;101149.16;;;13.37;77.59
64886;BME280;51514;52.206;5.114;2023-03-21T14:09:53;101154.91;;;13.34;78.64
64886;BME280;51514;52.206;5.114;2023-03-21T14:12:23;101154.91;;;13.34;78.55
64886;BME280;51514;52.206;5.114;2023-03-21T14:14:50;101141.91;;;13.30;77.89
64886;BME280;51514;52.206;5.114;2023-03-21T14:17:52;101141.72;;;13.23;77.77
64886;BME280;51514;52.206;5.114;2023-03-21T14:20:27;101126.81;;;13.27;77.91
64886;BME280;51514;52.206;5.114;2023-03-21T14:22:53;101125.81;;;13.28;78.72
64886;BME280;51514;52.206;5.114;2023-03-21T14:25:21;101132.41;;;13.26;78.26
64886;BME280;51514;52.206;5.114;2023-03-21T14:27:50;101124.28;;;13.26;78.00
64886;BME280;51514;52.206;5.114;2023-03-21T14:30:43;101131.41;;;13.27;78.04
64886;BME280;51514;52.206;5.114;2023-03-21T14:33:35;101134.25;;;13.33;78.51